sensor_id;sensor_type;location;lat;lon;timestamp;pressure;altitude;pressure_sealevel;temperature;humidity
52319;BME280;38258;51.148;14.068;2023-05-03T00:00:08;99286.16;;;6.07;100.00
52319;BME280;38258;51.148;14.068;2023-05-03T00:02:39;99288.56;;;5.75;100.00
52319;BME280;38258;51.148;14.068;2023-05-03T00:05:09;99293.94;;;6.04;100.00
52319;BME280;38258;51.148;14.068;2023-05-03T00:07:37;99289.63;;;6.06;100.00
52319;BME280;38258;51.148;14.068;2023-05-03T00:10:05;99293.09;;;6.08;100.00
52319;BME280;38258;51.148;14.068;2023-05-03T00:12:32;99291.25;;;5.92;100.00
52319;BME280;38258;51.148;14.068;2023-05-03T00:14:59;99304.22;;;5.87;100.00
52319;BME280;38258;51.148;14.068;2023-05-03T00:17:26;99296.47;;;5.98;100.00
52319;BME280;38258;51.148;14.068;2023-05-03T00:19:54;99295.69;;;6.08;100.00
52319;BME280;38258;51.148;14.068;2023-05-03T00:22:21;99292.25;;;6.17;100.00
52319;BME280;38258;51.148;14.068;2023-05-03T00:24:48;99290.53;;;6.18;100.00
52319;BME280;38258;51.148;14.068;2023-05-03T00:27:15;99291.38;;;6.12;100.00
52319;BME280;38258;51.148;14.068;2023-05-03T00:29:42;99290.50;;;6.10;100.00
52319;BME280;38258;51.148;14.068;2023-05-03T00:32:09;99294.78;;;6.05;100.00
52319;BME280;38258;51.148;14.068;2023-05-03T00:34:36;99289.59;;;6.08;100.00
52319;BME280;38258;51.148;14.068;2023-05-03T00:37:04;99287.00;;;6.02;100.00
52319;BME280;38258;51.148;14.068;2023-05-03T00:39:31;99293.91;;;6.01;100.00
52319;BME280;38258;51.148;14.068;2023-05-03T00:41:58;99283.47;;;5.98;100.00
52319;BME280;38258;51.148;14.068;2023-05-03T00:44:25;99283.44;;;5.93;100.00
52319;BME280;38258;51.148;14.068;2023-05-03T00:46:53;99293.09;;;6.05;100.00
52319;BME280;38258;51.148;14.068;2023-05-03T00:49:20;99282.72;;;6.13;100.00
52319;BME280;38258;51.148;14.068;2023-05-03T00:51:50;99294.75;;;5.96;100.00
52319;BME280;38258;51.148;14.068;2023-05-03T00:54:20;99286.03;;;5.90;100.00
52319;BME280;38258;51.148;14.068;2023-05-03T00:56:47;99287.78;;;5.94;100.00
52319;BME280;38258;51.148;14.068;2023-05-03T00:59:14;99288.75;;;6.11;100.00
52319;BME280;38258;51.148;14.068;2023-05-03T01:01:41;99288.75;;;6.06;100.00
52319;BME280;38258;51.148;14.068;2023-05-03T01:04:08;99288.69;;;5.97;100.00
52319;BME280;38258;51.148;14.068;2023-05-03T01:06:42;99266.94;;;5.77;100.00
52319;BME280;38258;51.148;14.068;2023-05-03T01:09:14;99286.94;;;5.91;100.00
52319;BME280;38258;51.148;14.068;2023-05-03T01:11:49;99281.72;;;5.91;100.00
52319;BME280;38258;51.148;14.068;2023-05-03T01:14:24;99286.03;;;5.90;100.00
52319;BME280;38258;51.148;14.068;2023-05-03T01:16:58;99288.66;;;5.92;100.00
52319;BME280;38258;51.148;14.068;2023-05-03T01:19:29;99280.00;;;5.96;100.00
52319;BME280;38258;51.148;14.068;2023-05-03T01:22:02;99285.19;;;5.91;100.00
52319;BME280;38258;51.148;14.068;2023-05-03T01:24:35;99291.22;;;5.81;100.00
52319;BME280;38258;51.148;14.068;2023-05-03T01:27:05;99278.25;;;5.90;100.00
52319;BME280;38258;51.148;14.068;2023-05-03T01:29:33;99286.09;;;6.00;100.00
52319;BME280;38258;51.148;14.068;2023-05-03T01:32:03;99286.06;;;5.95;100.00
52319;BME280;38258;51.148;14.068;2023-05-03T01:34:37;99278.38;;;6.04;100.00
52319;BME280;38258;51.148;14.068;2023-05-03T01:37:07;99282.66;;;6.02;100.00
52319;BME280;38258;51.148;14.068;2023-05-03T01:39:40;99263.59;;;5.96;100.00
52319;BME280;38258;51.148;14.068;2023-05-03T01:42:11;99280.06;;;6.02;100.00
52319;BME280;38258;51.148;14.068;2023-05-03T01:44:40;99278.28;;;5.95;100.00
52319;BME280;38258;51.148;14.068;2023-05-03T01:47:08;99260.06;;;5.81;100.00
52319;BME280;38258;51.148;14.068;2023-05-03T01:49:35;99274.75;;;5.87;100.00
52319;BME280;38258;51.148;14.068;2023-05-03T01:52:01;99276.50;;;5.83;100.00
52319;BME280;38258;51.148;14.068;2023-05-03T01:54:28;99259.16;;;5.80;100.00
52319;BME280;38258;51.148;14.068;2023-05-03T01:56:56;99278.22;;;5.86;100.00
52319;BME280;38258;51.148;14.068;2023-05-03T01:59:24;99272.13;;;5.76;100.00
52319;BME280;38258;51.148;14.068;2023-05-03T02:01:50;99280.81;;;5.81;100.00
52319;BME280;38258;51.148;14.068;2023-05-03T02:04:17;99272.19;;;5.88;100.00
52319;BME280;38258;51.148;14.068;2023-05-03T02:06:44;99273.00;;;5.79;100.00
52319;BME280;38258;51.148;14.068;2023-05-03T02:09:11;99282.44;;;5.65;100.00
52319;BME280;38258;51.148;14.068;2023-05-03T02:11:39;99252.09;;;5.51;100.00
52319;BME280;38258;51.148;14.068;2023-05-03T02:14:06;99275.59;;;5.79;100.00
52319;BME280;38258;51.148;14.068;2023-05-03T02:16:34;99273.81;;;5.68;100.00
52319;BME280;38258;51.148;14.068;2023-05-03T02:19:01;99276.41;;;5.66;100.00
52319;BME280;38258;51.148;14.068;2023-05-03T02:21:28;99254.72;;;5.56;100.00
52319;BME280;38258;51.148;14.068;2023-05-03T02:23:55;99272.00;;;5.52;100.00
52319;BME280;38258;51.148;14.068;2023-05-03T02:26:24;99265.94;;;5.54;100.00
52319;BME280;38258;51.148;14.068;2023-05-03T02:28:50;99269.34;;;5.42;100.00
52319;BME280;38258;51.148;14.068;2023-05-03T02:31:17;99243.22;;;5.18;100.00
52319;BME280;38258;51.148;14.068;2023-05-03T02:33:45;99264.09;;;5.37;100.00
52319;BME280;38258;51.148;14.068;2023-05-03T02:36:12;99264.09;;;5.34;100.00
52319;BME280;38258;51.148;14.068;2023-05-03T02:38:39;99264.91;;;5.30;100.00
52319;BME280;38258;51.148;14.068;2023-05-03T02:41:06;99270.06;;;5.23;100.00
52319;BME280;38258;51.148;14.068;2023-05-03T02:43:32;99265.66;;;5.16;100.00
52319;BME280;38258;51.148;14.068;2023-05-03T02:45:59;99266.50;;;5.12;100.00
52319;BME280;38258;51.148;14.068;2023-05-03T02:48:26;99264.81;;;5.13;100.00
52319;BME280;38258;51.148;14.068;2023-05-03T02:50:54;99271.66;;;5.06;100.00
52319;BME280;38258;51.148;14.068;2023-05-03T02:53:21;99278.53;;;5.02;100.00
52319;BME280;38258;51.148;14.068;2023-05-03T02:55:49;99293.22;;;5.02;100.00
52319;BME280;38258;51.148;14.068;2023-05-03T02:58:15;99285.41;;;4.99;100.00
52319;BME280;38258;51.148;14.068;2023-05-03T03:00:42;99286.28;;;5.01;100.00
52319;BME280;38258;51.148;14.068;2023-05-03T03:03:09;99287.13;;;4.95;100.00
52319;BME280;38258;51.148;14.068;2023-05-03T03:05:38;99290.56;;;4.94;100.00
52319;BME280;38258;51.148;14.068;2023-05-03T03:08:06;99284.63;;;5.06;100.00
52319;BME280;38258;51.148;14.068;2023-05-03T03:10:33;99262.84;;;4.84;100.00
52319;BME280;38258;51.148;14.068;2023-05-03T03:13:00;99289.00;;;5.12;100.00
52319;BME280;38258;51.148;14.068;2023-05-03T03:15:33;99294.13;;;5.05;100.00
52319;BME280;38258;51.148;14.068;2023-05-03T03:17:59;99297.72;;;5.21;100.00
52319;BME280;38258;51.148;14.068;2023-05-03T03:20:26;99302.81;;;5.11;100.00
52319;BME280;38258;51.148;14.068;2023-05-03T03:22:54;99301.91;;;5.04;100.00
52319;BME280;38258;51.148;14.068;2023-05-03T03:25:22;99303.59;;;5.02;100.00
52319;BME280;38258;51.148;14.068;2023-05-03T03:27:48;99298.38;;;4.97;100.00
52319;BME280;38258;51.148;14.068;2023-05-03T03:30:15;99313.00;;;4.90;100.00
52319;BME280;38258;51.148;14.068;2023-05-03T03:33:06;99315.56;;;4.89;100.00
52319;BME280;38258;51.148;14.068;2023-05-03T03:35:38;99319.13;;;4.97;100.00
52319;BME280;38258;51.148;14.068;2023-05-03T03:38:06;99313.75;;;4.80;100.00
52319;BME280;38258;51.148;14.068;2023-05-03T03:40:38;99313.72;;;4.75;100.00
52319;BME280;38258;51.148;14.068;2023-05-03T03:43:05;99318.06;;;4.79;100.00
52319;BME280;38258;51.148;14.068;2023-05-03T03:45:32;99315.53;;;4.87;100.00
52319;BME280;38258;51.148;14.068;2023-05-03T03:47:59;99305.13;;;4.81;100.00
52319;BME280;38258;51.148;14.068;2023-05-03T03:50:26;99321.63;;;4.91;100.00
52319;BME280;38258;51.148;14.068;2023-05-03T03:52:53;99322.44;;;4.84;100.00
52319;BME280;38258;51.148;14.068;2023-05-03T03:55:21;99331.09;;;4.87;100.00
52319;BME280;38258;51.148;14.068;2023-05-03T03:57:52;99325.88;;;4.81;100.00
52319;BME280;38258;51.148;14.068;2023-05-03T04:00:20;99332.00;;;4.91;100.00
52319;BME280;38258;51.148;14.068;2023-05-03T04:02:55;99338.91;;;4.89;100.00
52319;BME280;38258;51.148;14.068;2023-05-03T04:05:21;99319.03;;;4.88;100.00
52319;BME280;38258;51.148;14.068;2023-05-03T04:07:48;99335.53;;;4.96;100.00
52319;BME280;38258;51.148;14.068;2023-05-03T04:10:16;99323.34;;;4.89;100.00
52319;BME280;38258;51.148;14.068;2023-05-03T04:12:43;99334.56;;;4.85;100.00
52319;BME280;38258;51.148;14.068;2023-05-03T04:15:12;99346.69;;;4.89;100.00
52319;BME280;38258;51.148;14.068;2023-05-03T04:17:41;99351.75;;;4.79;100.00
52319;BME280;38258;51.148;14.068;2023-05-03T04:20:11;99361.25;;;4.77;100.00
52319;BME280;38258;51.148;14.068;2023-05-03T04:22:41;99356.13;;;4.82;100.00
52319;BME280;38258;51.148;14.068;2023-05-03T04:25:10;99368.16;;;4.78;100.00
52319;BME280;38258;51.148;14.068;2023-05-03T04:27:39;99374.34;;;4.88;100.00
52319;BME280;38258;51.148;14.068;2023-05-03T04:30:08;99357.78;;;4.74;100.00
52319;BME280;38258;51.148;14.068;2023-05-03T04:32:38;99377.88;;;4.97;100.00
52319;BME280;38258;51.148;14.068;2023-05-03T04:35:09;99358.72;;;4.82;100.00
52319;BME280;38258;51.148;14.068;2023-05-03T04:37:39;99378.84;;;5.06;100.00
52319;BME280;38258;51.148;14.068;2023-05-03T04:40:08;99373.69;;;5.09;100.00
52319;BME280;38258;51.148;14.068;2023-05-03T04:42:42;99380.50;;;4.98;100.00
52319;BME280;38258;51.148;14.068;2023-05-03T04:45:10;99375.31;;;4.98;100.00
52319;BME280;38258;51.148;14.068;2023-05-03T04:47:40;99379.78;;;5.15;100.00
52319;BME280;38258;51.148;14.068;2023-05-03T04:50:08;99383.31;;;5.21;100.00
52319;BME280;38258;51.148;14.068;2023-05-03T04:52:36;99383.22;;;5.11;100.00
52319;BME280;38258;51.148;14.068;2023-05-03T04:55:03;99392.91;;;5.30;100.00
52319;BME280;38258;51.148;14.068;2023-05-03T04:57:32;99386.88;;;5.33;100.00
52319;BME280;38258;51.148;14.068;2023-05-03T04:59:59;99391.34;;;5.49;100.00
52319;BME280;38258;51.148;14.068;2023-05-03T05:02:25;99400.69;;;5.33;100.00
52319;BME280;38258;51.148;14.068;2023-05-03T05:04:54;99399.16;;;5.52;100.00
52319;BME280;38258;51.148;14.068;2023-05-03T05:07:21;99380.69;;;5.20;100.00
52319;BME280;38258;51.148;14.068;2023-05-03T05:09:48;99388.81;;;5.59;100.00
52319;BME280;38258;51.148;14.068;2023-05-03T05:12:15;99399.06;;;5.42;100.00
52319;BME280;38258;51.148;14.068;2023-05-03T05:14:42;99407.75;;;5.45;100.00
52319;BME280;38258;51.148;14.068;2023-05-03T05:17:09;99404.25;;;5.42;100.00
52319;BME280;38258;51.148;14.068;2023-05-03T05:19:36;99401.78;;;5.54;100.00
52319;BME280;38258;51.148;14.068;2023-05-03T05:22:04;99401.88;;;5.68;100.00
52319;BME280;38258;51.148;14.068;2023-05-03T05:24:40;99384.28;;;5.33;100.00
52319;BME280;38258;51.148;14.068;2023-05-03T05:27:09;99418.09;;;5.41;100.00
52319;BME280;38258;51.148;14.068;2023-05-03T05:29:35;99412.00;;;5.38;100.00
52319;BME280;38258;51.148;14.068;2023-05-03T05:32:03;99401.63;;;5.38;100.00
52319;BME280;38258;51.148;14.068;2023-05-03T05:34:31;99421.66;;;5.54;100.00
52319;BME280;38258;51.148;14.068;2023-05-03T05:36:59;99408.56;;;5.41;100.00
52319;BME280;38258;51.148;14.068;2023-05-03T05:39:28;99423.34;;;5.48;100.00
52319;BME280;38258;51.148;14.068;2023-05-03T05:41:55;99399.78;;;5.25;100.00
52319;BME280;38258;51.148;14.068;2023-05-03T05:44:22;99415.69;;;5.67;100.00
52319;BME280;38258;51.148;14.068;2023-05-03T05:46:49;99430.25;;;5.46;100.00
52319;BME280;38258;51.148;14.068;2023-05-03T05:49:17;99420.72;;;5.47;100.00
52319;BME280;38258;51.148;14.068;2023-05-03T05:51:44;99431.22;;;5.62;100.00
52319;BME280;38258;51.148;14.068;2023-05-03T05:54:11;99435.59;;;5.68;100.00
52319;BME280;38258;51.148;14.068;2023-05-03T05:56:39;99436.56;;;5.79;100.00
52319;BME280;38258;51.148;14.068;2023-05-03T05:59:05;99417.50;;;5.76;100.00
52319;BME280;38258;51.148;14.068;2023-05-03T06:01:33;99431.41;;;5.86;100.00
52319;BME280;38258;51.148;14.068;2023-05-03T06:04:00;99415.06;;;5.98;100.00
52319;BME280;38258;51.148;14.068;2023-05-03T06:06:27;99436.91;;;6.20;100.00
52319;BME280;38258;51.148;14.068;2023-05-03T06:08:54;99402.75;;;5.70;100.00
52319;BME280;38258;51.148;14.068;2023-05-03T06:11:21;99435.03;;;6.05;100.00
52319;BME280;38258;51.148;14.068;2023-05-03T06:13:49;99437.69;;;6.13;100.00
52319;BME280;38258;51.148;14.068;2023-05-03T06:16:17;99435.69;;;5.79;100.00
52319;BME280;38258;51.148;14.068;2023-05-03T06:18:44;99447.13;;;6.00;100.00
52319;BME280;38258;51.148;14.068;2023-05-03T06:21:11;99445.69;;;6.48;100.00
52319;BME280;38258;51.148;14.068;2023-05-03T06:23:38;99425.78;;;6.49;100.00
52319;BME280;38258;51.148;14.068;2023-05-03T06:26:06;99447.31;;;6.25;100.00
52319;BME280;38258;51.148;14.068;2023-05-03T06:28:33;99434.53;;;6.63;100.00
52319;BME280;38258;51.148;14.068;2023-05-03T06:31:01;99420.72;;;6.77;100.00
52319;BME280;38258;51.148;14.068;2023-05-03T06:33:30;99434.47;;;6.51;100.00
52319;BME280;38258;51.148;14.068;2023-05-03T06:35:57;99445.78;;;6.61;100.00
52319;BME280;38258;51.148;14.068;2023-05-03T06:38:24;99440.56;;;6.55;100.00
52319;BME280;38258;51.148;14.068;2023-05-03T06:40:50;99423.31;;;6.78;100.00
52319;BME280;38258;51.148;14.068;2023-05-03T06:43:17;99442.41;;;6.87;100.00
52319;BME280;38258;51.148;14.068;2023-05-03T06:45:52;99438.03;;;6.79;100.00
52319;BME280;38258;51.148;14.068;2023-05-03T06:48:20;99444.94;;;6.73;98.27
52319;BME280;38258;51.148;14.068;2023-05-03T06:50:46;99453.44;;;6.36;94.30
52319;BME280;38258;51.148;14.068;2023-05-03T06:53:13;99443.22;;;6.72;92.88
52319;BME280;38258;51.148;14.068;2023-05-03T06:55:42;99431.19;;;7.03;93.78
52319;BME280;38258;51.148;14.068;2023-05-03T06:58:09;99450.22;;;6.90;94.48
52319;BME280;38258;51.148;14.068;2023-05-03T07:00:36;99445.00;;;6.84;96.01
52319;BME280;38258;51.148;14.068;2023-05-03T07:03:04;99447.78;;;7.40;92.04
52319;BME280;38258;51.148;14.068;2023-05-03T07:05:32;99428.56;;;6.89;93.13
52319;BME280;38258;51.148;14.068;2023-05-03T07:07:59;99452.88;;;6.99;88.88
52319;BME280;38258;51.148;14.068;2023-05-03T07:10:26;99451.28;;;7.85;89.65
52319;BME280;38258;51.148;14.068;2023-05-03T07:12:55;99451.28;;;7.82;87.30
52319;BME280;38258;51.148;14.068;2023-05-03T07:15:21;99449.53;;;7.90;87.97
52319;BME280;38258;51.148;14.068;2023-05-03T07:17:48;99447.75;;;7.46;81.52
52319;BME280;38258;51.148;14.068;2023-05-03T07:20:15;99449.50;;;7.48;87.43
52319;BME280;38258;51.148;14.068;2023-05-03T07:22:43;99441.69;;;7.89;84.16
52319;BME280;38258;51.148;14.068;2023-05-03T07:25:10;99457.34;;;8.03;83.00
52319;BME280;38258;51.148;14.068;2023-05-03T07:27:38;99439.97;;;7.89;77.33
52319;BME280;38258;51.148;14.068;2023-05-03T07:30:06;99438.19;;;8.15;83.93
52319;BME280;38258;51.148;14.068;2023-05-03T07:32:33;99415.47;;;8.79;83.22
52319;BME280;38258;51.148;14.068;2023-05-03T07:35:00;99415.59;;;8.25;78.79
52319;BME280;38258;51.148;14.068;2023-05-03T07:37:27;99436.38;;;8.62;79.90
52319;BME280;38258;51.148;14.068;2023-05-03T07:39:55;99426.84;;;8.42;74.78
52319;BME280;38258;51.148;14.068;2023-05-03T07:42:22;99427.78;;;8.16;75.98
52319;BME280;38258;51.148;14.068;2023-05-03T07:44:49;99417.19;;;8.74;73.09
52319;BME280;38258;51.148;14.068;2023-05-03T07:47:16;99439.66;;;9.08;73.40
52319;BME280;38258;51.148;14.068;2023-05-03T07:49:43;99431.78;;;9.15;69.33
52319;BME280;38258;51.148;14.068;2023-05-03T07:52:12;99431.81;;;9.14;66.93
52319;BME280;38258;51.148;14.068;2023-05-03T07:54:38;99435.09;;;9.44;65.97
52319;BME280;38258;51.148;14.068;2023-05-03T07:57:08;99446.69;;;8.99;63.62
52319;BME280;38258;51.148;14.068;2023-05-03T07:59:35;99436.91;;;9.32;63.09
52319;BME280;38258;51.148;14.068;2023-05-03T08:02:03;99441.53;;;8.84;73.07
52319;BME280;38258;51.148;14.068;2023-05-03T08:04:30;99441.59;;;8.45;72.80
52319;BME280;38258;51.148;14.068;2023-05-03T08:06:59;99439.81;;;8.76;73.12
52319;BME280;38258;51.148;14.068;2023-05-03T08:09:26;99444.31;;;7.92;74.00
52319;BME280;38258;51.148;14.068;2023-05-03T08:11:53;99425.19;;;8.07;75.73
52319;BME280;38258;51.148;14.068;2023-05-03T08:14:21;99421.56;;;8.72;75.07
52319;BME280;38258;51.148;14.068;2023-05-03T08:16:48;99436.59;;;9.78;70.56
52319;BME280;38258;51.148;14.068;2023-05-03T08:19:15;99426.88;;;9.92;68.79
52319;BME280;38258;51.148;14.068;2023-05-03T08:21:42;99427.19;;;9.56;71.67
52319;BME280;38258;51.148;14.068;2023-05-03T08:24:09;99438.22;;;7.99;74.02
52319;BME280;38258;51.148;14.068;2023-05-03T08:26:36;99434.63;;;8.66;76.31
52319;BME280;38258;51.148;14.068;2023-05-03T08:29:02;99427.63;;;8.79;71.71
52319;BME280;38258;51.148;14.068;2023-05-03T08:31:31;99433.88;;;7.78;72.32
52319;BME280;38258;51.148;14.068;2023-05-03T08:33:57;99413.88;;;8.25;76.74
52319;BME280;38258;51.148;14.068;2023-05-03T08:36:25;99429.31;;;10.11;67.06
52319;BME280;38258;51.148;14.068;2023-05-03T08:38:52;99423.47;;;10.71;62.91
52319;BME280;38258;51.148;14.068;2023-05-03T08:41:21;99435.19;;;10.35;61.57
52319;BME280;38258;51.148;14.068;2023-05-03T08:43:51;99426.78;;;10.84;63.79
52319;BME280;38258;51.148;14.068;2023-05-03T08:46:19;99434.06;;;11.28;60.63
52319;BME280;38258;51.148;14.068;2023-05-03T08:48:48;99431.22;;;9.92;61.93
52319;BME280;38258;51.148;14.068;2023-05-03T08:51:15;99432.66;;;10.24;61.68
52319;BME280;38258;51.148;14.068;2023-05-03T08:53:43;99434.50;;;8.97;63.50
52319;BME280;38258;51.148;14.068;2023-05-03T08:56:11;99436.56;;;9.79;64.24
52319;BME280;38258;51.148;14.068;2023-05-03T08:58:39;99413.47;;;10.25;62.03
52319;BME280;38258;51.148;14.068;2023-05-03T09:01:07;99426.69;;;11.53;60.84
52319;BME280;38258;51.148;14.068;2023-05-03T09:03:35;99431.56;;;11.20;61.12
52319;BME280;38258;51.148;14.068;2023-05-03T09:06:18;99418.94;;;10.01;60.63
52319;BME280;38258;51.148;14.068;2023-05-03T09:08:45;99434.13;;;9.57;64.11
52319;BME280;38258;51.148;14.068;2023-05-03T09:11:19;99422.97;;;9.33;62.89
52319;BME280;38258;51.148;14.068;2023-05-03T09:13:46;99432.56;;;9.33;63.76
52319;BME280;38258;51.148;14.068;2023-05-03T09:16:21;99424.72;;;10.35;59.03
52319;BME280;38258;51.148;14.068;2023-05-03T09:19:01;99428.72;;;10.71;57.18
52319;BME280;38258;51.148;14.068;2023-05-03T09:21:30;99408.81;;;10.58;60.62
52319;BME280;38258;51.148;14.068;2023-05-03T09:23:57;99433.94;;;9.81;61.34
52319;BME280;38258;51.148;14.068;2023-05-03T09:26:28;99430.78;;;10.40;61.55
52319;BME280;38258;51.148;14.068;2023-05-03T09:28:57;99424.75;;;9.25;62.04
52319;BME280;38258;51.148;14.068;2023-05-03T09:31:26;99427.50;;;9.03;62.70
52319;BME280;38258;51.148;14.068;2023-05-03T09:33:53;99431.94;;;10.12;61.43
52319;BME280;38258;51.148;14.068;2023-05-03T09:36:19;99435.91;;;11.21;57.06
52319;BME280;38258;51.148;14.068;2023-05-03T09:38:48;99437.56;;;11.85;54.77
52319;BME280;38258;51.148;14.068;2023-05-03T09:41:15;99418.06;;;12.01;56.67
52319;BME280;38258;51.148;14.068;2023-05-03T09:46:22;99439.22;;;10.67;62.04
52319;BME280;38258;51.148;14.068;2023-05-03T09:48:50;99437.34;;;10.78;57.40
52319;BME280;38258;51.148;14.068;2023-05-03T09:51:20;99432.16;;;9.86;61.07
52319;BME280;38258;51.148;14.068;2023-05-03T09:53:49;99432.78;;;10.11;60.35
52319;BME280;38258;51.148;14.068;2023-05-03T09:56:16;99433.50;;;10.27;58.30
52319;BME280;38258;51.148;14.068;2023-05-03T09:58:45;99424.91;;;12.10;56.23
52319;BME280;38258;51.148;14.068;2023-05-03T10:01:13;99425.19;;;11.93;55.19
52319;BME280;38258;51.148;14.068;2023-05-03T10:03:41;99416.28;;;12.51;54.11
52319;BME280;38258;51.148;14.068;2023-05-03T10:06:18;99426.16;;;11.86;55.04
52319;BME280;38258;51.148;14.068;2023-05-03T10:08:52;99413.66;;;12.51;52.57
52319;BME280;38258;51.148;14.068;2023-05-03T10:11:22;99393.97;;;12.73;52.97
52319;BME280;38258;51.148;14.068;2023-05-03T10:13:49;99408.72;;;12.79;50.11
52319;BME280;38258;51.148;14.068;2023-05-03T10:16:20;99393.59;;;13.30;53.31
52319;BME280;38258;51.148;14.068;2023-05-03T10:18:53;99415.31;;;12.09;55.19
52319;BME280;38258;51.148;14.068;2023-05-03T10:21:28;99410.06;;;12.55;54.66
52319;BME280;38258;51.148;14.068;2023-05-03T10:24:10;99407.97;;;10.53;56.26
52319;BME280;38258;51.148;14.068;2023-05-03T10:26:39;99390.94;;;10.91;58.71
52319;BME280;38258;51.148;14.068;2023-05-03T10:32:43;99395.88;;;12.65;49.85
52319;BME280;38258;51.148;14.068;2023-05-03T10:35:13;99397.56;;;12.24;50.33
52319;BME280;38258;51.148;14.068;2023-05-03T10:37:41;99397.59;;;12.66;49.29
52319;BME280;38258;51.148;14.068;2023-05-03T10:40:13;99403.81;;;12.62;51.45
52319;BME280;38258;51.148;14.068;2023-05-03T10:42:43;99399.66;;;13.32;51.92
52319;BME280;38258;51.148;14.068;2023-05-03T10:45:20;99396.13;;;11.55;50.98
52319;BME280;38258;51.148;14.068;2023-05-03T10:48:16;99385.72;;;12.01;50.13
52319;BME280;38258;51.148;14.068;2023-05-03T10:50:45;99392.66;;;14.05;49.33
52319;BME280;38258;51.148;14.068;2023-05-03T10:53:33;99393.50;;;13.33;47.68
52319;BME280;38258;51.148;14.068;2023-05-03T10:56:03;99370.50;;;14.14;49.02
52319;BME280;38258;51.148;14.068;2023-05-03T10:58:35;99383.31;;;14.58;47.18
52319;BME280;38258;51.148;14.068;2023-05-03T11:01:03;99376.59;;;15.08;43.87
52319;BME280;38258;51.148;14.068;2023-05-03T11:03:42;99382.56;;;15.15;46.82
52319;BME280;38258;51.148;14.068;2023-05-03T11:06:26;99392.78;;;13.26;47.37
52319;BME280;38258;51.148;14.068;2023-05-03T11:08:52;99377.34;;;13.52;47.38
52319;BME280;38258;51.148;14.068;2023-05-03T11:11:20;99386.31;;;13.79;46.09
52319;BME280;38258;51.148;14.068;2023-05-03T11:13:49;99381.72;;;14.21;46.26
52319;BME280;38258;51.148;14.068;2023-05-03T11:16:16;99382.53;;;13.90;49.55
52319;BME280;38258;51.148;14.068;2023-05-03T11:18:43;99383.34;;;13.57;47.50
52319;BME280;38258;51.148;14.068;2023-05-03T11:21:10;99383.00;;;14.37;48.57
52319;BME280;38258;51.148;14.068;2023-05-03T11:23:38;99382.97;;;14.39;47.27
52319;BME280;38258;51.148;14.068;2023-05-03T11:26:05;99379.28;;;15.35;46.76
52319;BME280;38258;51.148;14.068;2023-05-03T11:28:33;99385.59;;;13.73;47.00
52319;BME280;38258;51.148;14.068;2023-05-03T11:31:00;99382.13;;;14.05;45.21
52319;BME280;38258;51.148;14.068;2023-05-03T11:33:27;99377.44;;;14.17;44.95
52319;BME280;38258;51.148;14.068;2023-05-03T11:35:55;99373.44;;;11.53;49.89
52319;BME280;38258;51.148;14.068;2023-05-03T11:38:22;99391.03;;;10.82;54.20
52319;BME280;38258;51.148;14.068;2023-05-03T11:40:48;99392.22;;;10.59;55.34
52319;BME280;38258;51.148;14.068;2023-05-03T11:43:16;99389.66;;;11.75;55.97
52319;BME280;38258;51.148;14.068;2023-05-03T11:45:45;99379.44;;;13.74;51.63
52319;BME280;38258;51.148;14.068;2023-05-03T11:48:13;99376.06;;;14.96;47.41
52319;BME280;38258;51.148;14.068;2023-05-03T11:50:45;99367.34;;;14.64;44.85
52319;BME280;38258;51.148;14.068;2023-05-03T11:53:12;99354.22;;;14.63;46.06
52319;BME280;38258;51.148;14.068;2023-05-03T11:55:40;99378.56;;;14.73;44.68
52319;BME280;38258;51.148;14.068;2023-05-03T11:58:08;99379.78;;;12.82;48.21
52319;BME280;38258;51.148;14.068;2023-05-03T12:00:38;99366.84;;;12.73;50.00
52319;BME280;38258;51.148;14.068;2023-05-03T12:03:07;99378.84;;;13.97;51.31
52319;BME280;38258;51.148;14.068;2023-05-03T12:05:34;99382.03;;;14.73;46.24
52319;BME280;38258;51.148;14.068;2023-05-03T12:08:01;99375.28;;;13.65;48.16
52319;BME280;38258;51.148;14.068;2023-05-03T12:10:30;99358.41;;;14.72;47.97
52319;BME280;38258;51.148;14.068;2023-05-03T12:12:58;99381.56;;;14.89;48.00
52319;BME280;38258;51.148;14.068;2023-05-03T12:15:33;99380.44;;;12.50;51.04
52319;BME280;38258;51.148;14.068;2023-05-03T12:18:03;99359.28;;;14.07;47.76
52319;BME280;38258;51.148;14.068;2023-05-03T12:20:31;99363.53;;;14.11;47.75
52319;BME280;38258;51.148;14.068;2023-05-03T12:23:00;99355.44;;;15.11;46.01
52319;BME280;38258;51.148;14.068;2023-05-03T12:25:28;99359.47;;;15.50;43.11
52319;BME280;38258;51.148;14.068;2023-05-03T12:27:57;99363.66;;;14.70;43.75
52319;BME280;38258;51.148;14.068;2023-05-03T12:30:25;99363.59;;;14.73;44.30
52319;BME280;38258;51.148;14.068;2023-05-03T12:32:52;99364.16;;;14.53;46.67
52319;BME280;38258;51.148;14.068;2023-05-03T12:35:19;99358.69;;;14.29;44.26
52319;BME280;38258;51.148;14.068;2023-05-03T12:37:49;99362.25;;;14.28;43.89
52319;BME280;38258;51.148;14.068;2023-05-03T12:40:16;99340.50;;;13.88;45.78
52319;BME280;38258;51.148;14.068;2023-05-03T12:42:44;99360.72;;;14.81;46.43
52319;BME280;38258;51.148;14.068;2023-05-03T12:45:11;99322.22;;;14.47;47.59
52319;BME280;38258;51.148;14.068;2023-05-03T12:47:39;99352.13;;;14.76;45.39
52319;BME280;38258;51.148;14.068;2023-05-03T12:50:07;99353.47;;;15.18;43.49
52319;BME280;38258;51.148;14.068;2023-05-03T12:52:35;99346.19;;;15.53;46.65
52319;BME280;38258;51.148;14.068;2023-05-03T12:55:04;99351.31;;;14.74;45.60
52319;BME280;38258;51.148;14.068;2023-05-03T12:57:32;99349.16;;;13.92;44.82
52319;BME280;38258;51.148;14.068;2023-05-03T12:59:59;99340.53;;;15.64;49.33
52319;BME280;38258;51.148;14.068;2023-05-03T13:02:25;99340.91;;;15.26;43.35
52319;BME280;38258;51.148;14.068;2023-05-03T13:04:52;99317.19;;;16.29;45.39